sensor_id;sensor_type;location;lat;lon;timestamp;pressure;altitude;pressure_sealevel;temperature;humidity
37486;BME280;23341;50.296;18.960;2023-08-06T00:02:08;53932.16;;;-144.43;100.00
37486;BME280;23341;50.296;18.960;2023-08-06T00:07:11;53894.13;;;-144.43;100.00
37486;BME280;23341;50.296;18.960;2023-08-06T00:12:15;53900.13;;;-144.43;100.00
37486;BME280;23341;50.296;18.960;2023-08-06T00:17:20;53934.16;;;-144.43;100.00
37486;BME280;23341;50.296;18.960;2023-08-06T00:22:24;53946.16;;;-144.43;100.00
37486;BME280;23341;50.296;18.960;2023-08-06T00:27:28;53948.16;;;-144.43;100.00
37486;BME280;23341;50.296;18.960;2023-08-06T00:32:33;53954.16;;;-144.43;100.00
37486;BME280;23341;50.296;18.960;2023-08-06T00:37:37;53934.16;;;-144.43;100.00
37486;BME280;23341;50.296;18.960;2023-08-06T00:42:40;53960.16;;;-144.43;100.00
37486;BME280;23341;50.296;18.960;2023-08-06T00:47:48;53896.13;;;-144.43;100.00
37486;BME280;23341;50.296;18.960;2023-08-06T00:52:52;53924.13;;;-144.43;100.00
37486;BME280;23341;50.296;18.960;2023-08-06T00:57:56;53962.16;;;-144.43;100.00
37486;BME280;23341;50.296;18.960;2023-08-06T01:03:01;53976.16;;;-144.43;100.00
37486;BME280;23341;50.296;18.960;2023-08-06T01:08:15;53986.16;;;-144.43;100.00
37486;BME280;23341;50.296;18.960;2023-08-06T01:13:24;53934.16;;;-144.43;100.00
37486;BME280;23341;50.296;18.960;2023-08-06T01:18:31;53948.16;;;-144.43;100.00
37486;BME280;23341;50.296;18.960;2023-08-06T01:23:37;53942.16;;;-144.43;100.00
37486;BME280;23341;50.296;18.960;2023-08-06T01:28:46;53938.16;;;-144.43;100.00
37486;BME280;23341;50.296;18.960;2023-08-06T01:33:53;53940.16;;;-144.43;100.00
37486;BME280;23341;50.296;18.960;2023-08-06T01:39:01;53994.16;;;-144.43;100.00
37486;BME280;23341;50.296;18.960;2023-08-06T01:44:04;54002.19;;;-144.43;100.00
37486;BME280;23341;50.296;18.960;2023-08-06T01:49:08;54008.19;;;-144.43;100.00
37486;BME280;23341;50.296;18.960;2023-08-06T01:54:13;54006.19;;;-144.43;100.00
37486;BME280;23341;50.296;18.960;2023-08-06T01:59:17;53982.16;;;-144.43;100.00
37486;BME280;23341;50.296;18.960;2023-08-06T02:04:21;53942.16;;;-144.43;100.00
37486;BME280;23341;50.296;18.960;2023-08-06T02:09:26;53982.16;;;-144.43;100.00
37486;BME280;23341;50.296;18.960;2023-08-06T02:14:31;53954.16;;;-144.43;100.00
37486;BME280;23341;50.296;18.960;2023-08-06T02:19:35;54018.19;;;-144.43;100.00
37486;BME280;23341;50.296;18.960;2023-08-06T02:24:41;54008.19;;;-144.43;100.00
37486;BME280;23341;50.296;18.960;2023-08-06T02:29:45;54058.22;;;-144.43;100.00
37486;BME280;23341;50.296;18.960;2023-08-06T02:34:49;54022.19;;;-144.43;100.00
37486;BME280;23341;50.296;18.960;2023-08-06T02:39:54;54038.19;;;-144.43;100.00
37486;BME280;23341;50.296;18.960;2023-08-06T02:44:57;54024.19;;;-144.43;100.00
37486;BME280;23341;50.296;18.960;2023-08-06T02:50:03;53982.16;;;-144.43;100.00
37486;BME280;23341;50.296;18.960;2023-08-06T02:55:09;54022.19;;;-144.43;100.00
37486;BME280;23341;50.296;18.960;2023-08-06T03:00:17;54032.19;;;-144.43;100.00
37486;BME280;23341;50.296;18.960;2023-08-06T03:10:54;54050.19;;;-144.43;100.00
37486;BME280;23341;50.296;18.960;2023-08-06T03:15:59;54026.19;;;-144.43;100.00
37486;BME280;23341;50.296;18.960;2023-08-06T03:21:05;53998.19;;;-144.43;100.00
37486;BME280;23341;50.296;18.960;2023-08-06T03:26:11;54036.19;;;-144.43;100.00
37486;BME280;23341;50.296;18.960;2023-08-06T03:31:15;53992.16;;;-144.43;100.00
37486;BME280;23341;50.296;18.960;2023-08-06T03:36:20;54004.19;;;-144.43;100.00
37486;BME280;23341;50.296;18.960;2023-08-06T03:41:27;53926.13;;;-144.43;100.00
37486;BME280;23341;50.296;18.960;2023-08-06T03:46:32;53938.16;;;-144.43;100.00
37486;BME280;23341;50.296;18.960;2023-08-06T03:51:39;53874.13;;;-144.43;100.00
37486;BME280;23341;50.296;18.960;2023-08-06T03:56:45;53940.16;;;-144.43;100.00
37486;BME280;23341;50.296;18.960;2023-08-06T04:01:51;53940.16;;;-144.43;100.00
37486;BME280;23341;50.296;18.960;2023-08-06T04:06:55;53960.16;;;-144.43;100.00
37486;BME280;23341;50.296;18.960;2023-08-06T04:12:00;53952.16;;;-144.43;100.00
37486;BME280;23341;50.296;18.960;2023-08-06T04:17:05;53978.16;;;-144.43;100.00
37486;BME280;23341;50.296;18.960;2023-08-06T04:22:09;54062.22;;;-144.43;100.00
37486;BME280;23341;50.296;18.960;2023-08-06T04:27:15;54074.22;;;-144.43;100.00
37486;BME280;23341;50.296;18.960;2023-08-06T04:32:20;54060.22;;;-144.43;100.00
37486;BME280;23341;50.296;18.960;2023-08-06T04:37:27;54078.22;;;-144.43;100.00
37486;BME280;23341;50.296;18.960;2023-08-06T04:42:32;54118.25;;;-144.43;100.00
37486;BME280;23341;50.296;18.960;2023-08-06T04:47:36;54124.25;;;-144.43;100.00
37486;BME280;23341;50.296;18.960;2023-08-06T04:52:40;54162.25;;;-144.43;100.00
37486;BME280;23341;50.296;18.960;2023-08-06T04:57:45;54110.22;;;-144.43;100.00
37486;BME280;23341;50.296;18.960;2023-08-06T05:02:49;54120.25;;;-144.43;100.00
37486;BME280;23341;50.296;18.960;2023-08-06T05:07:54;54130.25;;;-144.43;100.00
37486;BME280;23341;50.296;18.960;2023-08-06T05:12:59;54174.25;;;-144.43;100.00
37486;BME280;23341;50.296;18.960;2023-08-06T05:18:03;54072.22;;;-144.43;100.00
37486;BME280;23341;50.296;18.960;2023-08-06T05:23:07;54124.25;;;-144.43;100.00
37486;BME280;23341;50.296;18.960;2023-08-06T05:28:12;54160.25;;;-144.43;100.00
37486;BME280;23341;50.296;18.960;2023-08-06T05:33:16;54062.22;;;-144.43;100.00
37486;BME280;23341;50.296;18.960;2023-08-06T05:38:19;54070.22;;;-144.43;100.00
37486;BME280;23341;50.296;18.960;2023-08-06T05:43:24;53902.13;;;-144.43;100.00
37486;BME280;23341;50.296;18.960;2023-08-06T05:48:28;53902.13;;;-144.43;100.00
37486;BME280;23341;50.296;18.960;2023-08-06T05:53:32;53760.06;;;-144.43;100.00
37486;BME280;23341;50.296;18.960;2023-08-06T05:58:37;53720.06;;;-144.43;100.00
37486;BME280;23341;50.296;18.960;2023-08-06T06:03:40;53740.06;;;-144.43;100.00
37486;BME280;23341;50.296;18.960;2023-08-06T06:08:44;53702.03;;;-144.43;100.00
37486;BME280;23341;50.296;18.960;2023-08-06T06:13:50;53618.00;;;-144.43;100.00
37486;BME280;23341;50.296;18.960;2023-08-06T06:18:54;53574.00;;;-144.43;100.00
37486;BME280;23341;50.296;18.960;2023-08-06T06:23:59;53574.00;;;-144.43;100.00
37486;BME280;23341;50.296;18.960;2023-08-06T06:29:04;53469.94;;;-144.43;100.00
37486;BME280;23341;50.296;18.960;2023-08-06T06:34:10;53399.94;;;-144.43;100.00
37486;BME280;23341;50.296;18.960;2023-08-06T06:39:14;53393.94;;;-144.43;100.00
37486;BME280;23341;50.296;18.960;2023-08-06T06:44:19;53397.94;;;-144.43;100.00
37486;BME280;23341;50.296;18.960;2023-08-06T06:49:23;53417.94;;;-144.43;100.00
37486;BME280;23341;50.296;18.960;2023-08-06T06:54:26;53429.94;;;-144.43;100.00
37486;BME280;23341;50.296;18.960;2023-08-06T06:59:31;53389.94;;;-144.43;100.00
37486;BME280;23341;50.296;18.960;2023-08-06T07:04:35;53367.91;;;-144.43;100.00
37486;BME280;23341;50.296;18.960;2023-08-06T07:09:39;53369.91;;;-144.43;100.00
37486;BME280;23341;50.296;18.960;2023-08-06T07:14:44;53367.91;;;-144.43;100.00
37486;BME280;23341;50.296;18.960;2023-08-06T07:19:48;53321.91;;;-144.43;100.00
37486;BME280;23341;50.296;18.960;2023-08-06T07:24:51;53287.88;;;-144.43;100.00
37486;BME280;23341;50.296;18.960;2023-08-06T07:29:56;53273.88;;;-144.43;100.00
37486;BME280;23341;50.296;18.960;2023-08-06T07:35:00;53273.88;;;-144.43;100.00
37486;BME280;23341;50.296;18.960;2023-08-06T07:40:06;53255.88;;;-144.43;100.00
37486;BME280;23341;50.296;18.960;2023-08-06T07:45:11;53303.91;;;-144.43;100.00
37486;BME280;23341;50.296;18.960;2023-08-06T07:50:15;53313.91;;;-144.43;100.00
37486;BME280;23341;50.296;18.960;2023-08-06T07:55:18;53281.88;;;-144.43;100.00
37486;BME280;23341;50.296;18.960;2023-08-06T08:00:23;53323.91;;;-144.43;100.00
37486;BME280;23341;50.296;18.960;2023-08-06T08:05:27;53313.91;;;-144.43;100.00
37486;BME280;23341;50.296;18.960;2023-08-06T08:10:31;53339.91;;;-144.43;100.00
37486;BME280;23341;50.296;18.960;2023-08-06T08:15:36;53275.88;;;-144.43;100.00
37486;BME280;23341;50.296;18.960;2023-08-06T08:20:39;53269.88;;;-144.43;100.00
37486;BME280;23341;50.296;18.960;2023-08-06T08:25:44;53265.88;;;-144.43;100.00
37486;BME280;23341;50.296;18.960;2023-08-06T08:30:49;53339.91;;;-144.43;100.00
37486;BME280;23341;50.296;18.960;2023-08-06T08:35:53;53259.88;;;-144.43;100.00
37486;BME280;23341;50.296;18.960;2023-08-06T08:40:57;53277.88;;;-144.43;100.00
37486;BME280;23341;50.296;18.960;2023-08-06T08:46:04;53273.88;;;-144.43;100.00
37486;BME280;23341;50.296;18.960;2023-08-06T08:51:10;53257.88;;;-144.43;100.00
37486;BME280;23341;50.296;18.960;2023-08-06T08:56:15;53237.88;;;-144.43;100.00
37486;BME280;23341;50.296;18.960;2023-08-06T09:01:21;53261.88;;;-144.43;100.00
37486;BME280;23341;50.296;18.960;2023-08-06T09:06:26;53269.88;;;-144.43;100.00
37486;BME280;23341;50.296;18.960;2023-08-06T09:11:34;53275.88;;;-144.43;100.00
37486;BME280;23341;50.296;18.960;2023-08-06T09:16:43;53259.88;;;-144.43;100.00
37486;BME280;23341;50.296;18.960;2023-08-06T09:21:48;53273.88;;;-144.43;100.00
37486;BME280;23341;50.296;18.960;2023-08-06T09:26:54;53305.91;;;-144.43;100.00
37486;BME280;23341;50.296;18.960;2023-08-06T09:31:59;53213.88;;;-144.43;100.00
37486;BME280;23341;50.296;18.960;2023-08-06T09:37:03;53241.88;;;-144.43;100.00
37486;BME280;23341;50.296;18.960;2023-08-06T09:42:07;53221.88;;;-144.43;100.00
37486;BME280;23341;50.296;18.960;2023-08-06T09:47:15;53193.88;;;-144.43;100.00
37486;BME280;23341;50.296;18.960;2023-08-06T09:52:20;53215.88;;;-144.43;100.00
37486;BME280;23341;50.296;18.960;2023-08-06T09:57:25;53209.88;;;-144.43;100.00
37486;BME280;23341;50.296;18.960;2023-08-06T10:02:32;53237.88;;;-144.43;100.00
37486;BME280;23341;50.296;18.960;2023-08-06T10:07:37;53197.88;;;-144.43;100.00
37486;BME280;23341;50.296;18.960;2023-08-06T10:12:45;53191.88;;;-144.43;100.00
37486;BME280;23341;50.296;18.960;2023-08-06T10:17:53;53199.88;;;-144.43;100.00
37486;BME280;23341;50.296;18.960;2023-08-06T10:23:02;53181.88;;;-144.43;100.00
37486;BME280;23341;50.296;18.960;2023-08-06T10:28:10;53161.84;;;-144.43;100.00
37486;BME280;23341;50.296;18.960;2023-08-06T10:33:19;53143.84;;;-144.43;100.00
37486;BME280;23341;50.296;18.960;2023-08-06T10:38:25;53121.84;;;-144.43;100.00
37486;BME280;23341;50.296;18.960;2023-08-06T10:43:35;53105.84;;;-144.43;100.00
37486;BME280;23341;50.296;18.960;2023-08-06T10:48:45;53177.84;;;-144.43;100.00
37486;BME280;23341;50.296;18.960;2023-08-06T10:53:50;53193.88;;;-144.43;100.00
37486;BME280;23341;50.296;18.960;2023-08-06T10:58:54;53133.84;;;-144.43;100.00
37486;BME280;23341;50.296;18.960;2023-08-06T11:04:03;53161.84;;;-144.43;100.00
37486;BME280;23341;50.296;18.960;2023-08-06T11:09:07;53167.84;;;-144.43;100.00
37486;BME280;23341;50.296;18.960;2023-08-06T11:14:14;53123.84;;;-144.43;100.00
37486;BME280;23341;50.296;18.960;2023-08-06T11:19:20;53157.84;;;-144.43;100.00
37486;BME280;23341;50.296;18.960;2023-08-06T11:24:25;53147.84;;;-144.43;100.00
37486;BME280;23341;50.296;18.960;2023-08-06T11:29:29;53147.84;;;-144.43;100.00
37486;BME280;23341;50.296;18.960;2023-08-06T11:34:35;53165.84;;;-144.43;100.00
37486;BME280;23341;50.296;18.960;2023-08-06T11:39:45;53181.88;;;-144.43;100.00
37486;BME280;23341;50.296;18.960;2023-08-06T11:44:49;53219.88;;;-144.43;100.00
37486;BME280;23341;50.296;18.960;2023-08-06T11:49:55;53237.88;;;-144.43;100.00
37486;BME280;23341;50.296;18.960;2023-08-06T11:55:03;53189.88;;;-144.43;100.00
37486;BME280;23341;50.296;18.960;2023-08-06T12:00:10;53155.84;;;-144.43;100.00
37486;BME280;23341;50.296;18.960;2023-08-06T12:05:19;53209.88;;;-144.43;100.00
37486;BME280;23341;50.296;18.960;2023-08-06T12:10:27;53229.88;;;-144.43;100.00
37486;BME280;23341;50.296;18.960;2023-08-06T12:15:31;53265.88;;;-144.43;100.00
37486;BME280;23341;50.296;18.960;2023-08-06T12:20:37;53185.88;;;-144.43;100.00
37486;BME280;23341;50.296;18.960;2023-08-06T12:25:41;53251.88;;;-144.43;100.00
37486;BME280;23341;50.296;18.960;2023-08-06T12:30:44;53261.88;;;-144.43;100.00
37486;BME280;23341;50.296;18.960;2023-08-06T12:35:50;53229.88;;;-144.43;100.00
37486;BME280;23341;50.296;18.960;2023-08-06T12:40:55;53257.88;;;-144.43;100.00
37486;BME280;23341;50.296;18.960;2023-08-06T12:45:59;53175.84;;;-144.43;100.00
37486;BME280;23341;50.296;18.960;2023-08-06T12:51:04;53279.88;;;-144.43;100.00
37486;BME280;23341;50.296;18.960;2023-08-06T12:56:08;53239.88;;;-144.43;100.00
37486;BME280;23341;50.296;18.960;2023-08-06T13:01:12;53217.88;;;-144.43;100.00
37486;BME280;23341;50.296;18.960;2023-08-06T13:06:17;53241.88;;;-144.43;100.00
37486;BME280;23341;50.296;18.960;2023-08-06T13:11:21;53279.88;;;-144.43;100.00
37486;BME280;23341;50.296;18.960;2023-08-06T13:16:24;53285.88;;;-144.43;100.00
37486;BME280;23341;50.296;18.960;2023-08-06T13:21:33;53301.91;;;-144.43;100.00
37486;BME280;23341;50.296;18.960;2023-08-06T13:26:38;53383.91;;;-144.43;100.00
37486;BME280;23341;50.296;18.960;2023-08-06T13:31:42;53375.91;;;-144.43;100.00
37486;BME280;23341;50.296;18.960;2023-08-06T13:36:47;53578.00;;;-144.43;100.00
37486;BME280;23341;50.296;18.960;2023-08-06T13:41:52;53483.97;;;-144.43;100.00
37486;BME280;23341;50.296;18.960;2023-08-06T13:46:56;53323.91;;;-144.43;100.00
37486;BME280;23341;50.296;18.960;2023-08-06T13:52:01;53365.91;;;-144.43;100.00
37486;BME280;23341;50.296;18.960;2023-08-06T13:57:22;53305.91;;;-144.43;100.00
37486;BME280;23341;50.296;18.960;2023-08-06T14:02:26;53301.91;;;-144.43;100.00
37486;BME280;23341;50.296;18.960;2023-08-06T14:07:31;53277.88;;;-144.43;100.00
37486;BME280;23341;50.296;18.960;2023-08-06T14:12:35;53377.91;;;-144.43;100.00
37486;BME280;23341;50.296;18.960;2023-08-06T14:17:39;53459.94;;;-144.43;100.00
37486;BME280;23341;50.296;18.960;2023-08-06T14:22:44;53493.97;;;-144.43;100.00
37486;BME280;23341;50.296;18.960;2023-08-06T14:27:48;53481.97;;;-144.43;100.00
37486;BME280;23341;50.296;18.960;2023-08-06T14:32:51;53409.94;;;-144.43;100.00
37486;BME280;23341;50.296;18.960;2023-08-06T14:37:56;53445.94;;;-144.43;100.00
37486;BME280;23341;50.296;18.960;2023-08-06T14:43:02;53321.91;;;-144.43;100.00
37486;BME280;23341;50.296;18.960;2023-08-06T14:48:06;53259.88;;;-144.43;100.00
37486;BME280;23341;50.296;18.960;2023-08-06T14:53:11;53201.88;;;-144.43;100.00
37486;BME280;23341;50.296;18.960;2023-08-06T14:58:15;53177.84;;;-144.43;100.00
37486;BME280;23341;50.296;18.960;2023-08-06T15:03:19;53235.88;;;-144.43;100.00
37486;BME280;23341;50.296;18.960;2023-08-06T15:08:24;53225.88;;;-144.43;100.00
37486;BME280;23341;50.296;18.960;2023-08-06T15:13:28;53217.88;;;-144.43;100.00
37486;BME280;23341;50.296;18.960;2023-08-06T15:18:32;53193.88;;;-144.43;100.00
37486;BME280;23341;50.296;18.960;2023-08-06T15:23:38;53215.88;;;-144.43;100.00
37486;BME280;23341;50.296;18.960;2023-08-06T15:28:41;53253.88;;;-144.43;100.00
37486;BME280;23341;50.296;18.960;2023-08-06T15:33:45;53217.88;;;-144.43;100.00
37486;BME280;23341;50.296;18.960;2023-08-06T15:38:50;53189.88;;;-144.43;100.00
37486;BME280;23341;50.296;18.960;2023-08-06T15:43:54;53173.84;;;-144.43;100.00
37486;BME280;23341;50.296;18.960;2023-08-06T15:48:57;53173.84;;;-144.43;100.00
37486;BME280;23341;50.296;18.960;2023-08-06T15:54:02;53169.84;;;-144.43;100.00
37486;BME280;23341;50.296;18.960;2023-08-06T15:59:23;53139.84;;;-144.43;100.00
37486;BME280;23341;50.296;18.960;2023-08-06T16:04:27;53171.84;;;-144.43;100.00
37486;BME280;23341;50.296;18.960;2023-08-06T16:09:33;53135.84;;;-144.43;100.00
37486;BME280;23341;50.296;18.960;2023-08-06T16:14:37;53117.84;;;-144.43;100.00
37486;BME280;23341;50.296;18.960;2023-08-06T16:19:41;53075.84;;;-144.43;100.00
37486;BME280;23341;50.296;18.960;2023-08-06T16:24:46;53113.84;;;-144.43;100.00
37486;BME280;23341;50.296;18.960;2023-08-06T16:29:51;53097.84;;;-144.43;100.00
37486;BME280;23341;50.296;18.960;2023-08-06T16:34:55;53123.84;;;-144.43;100.00
37486;BME280;23341;50.296;18.960;2023-08-06T16:40:00;53079.84;;;-144.43;100.00
37486;BME280;23341;50.296;18.960;2023-08-06T16:45:05;53127.84;;;-144.43;100.00
37486;BME280;23341;50.296;18.960;2023-08-06T16:50:10;53141.84;;;-144.43;100.00
37486;BME280;23341;50.296;18.960;2023-08-06T16:55:15;53111.84;;;-144.43;100.00
37486;BME280;23341;50.296;18.960;2023-08-06T17:00:20;53105.84;;;-144.43;100.00
37486;BME280;23341;50.296;18.960;2023-08-06T17:05:24;53097.84;;;-144.43;100.00
37486;BME280;23341;50.296;18.960;2023-08-06T17:10:31;53069.84;;;-144.43;100.00
37486;BME280;23341;50.296;18.960;2023-08-06T17:15:35;53117.84;;;-144.43;100.00
37486;BME280;23341;50.296;18.960;2023-08-06T17:20:40;53111.84;;;-144.43;100.00
37486;BME280;23341;50.296;18.960;2023-08-06T17:25:45;53029.81;;;-144.43;100.00
37486;BME280;23341;50.296;18.960;2023-08-06T17:30:49;53079.84;;;-144.43;100.00
37486;BME280;23341;50.296;18.960;2023-08-06T17:35:53;53061.81;;;-144.43;100.00
37486;BME280;23341;50.296;18.960;2023-08-06T17:40:58;53059.81;;;-144.43;100.00
37486;BME280;23341;50.296;18.960;2023-08-06T17:46:06;53023.81;;;-144.43;100.00
37486;BME280;23341;50.296;18.960;2023-08-06T17:51:10;53059.81;;;-144.43;100.00
37486;BME280;23341;50.296;18.960;2023-08-06T17:56:15;53061.81;;;-144.43;100.00
37486;BME280;23341;50.296;18.960;2023-08-06T18:01:19;53037.81;;;-144.43;100.00
37486;BME280;23341;50.296;18.960;2023-08-06T18:06:23;53045.81;;;-144.43;100.00
37486;BME280;23341;50.296;18.960;2023-08-06T18:11:28;53069.84;;;-144.43;100.00
37486;BME280;23341;50.296;18.960;2023-08-06T18:16:32;53029.81;;;-144.43;100.00
37486;BME280;23341;50.296;18.960;2023-08-06T18:21:36;53011.81;;;-144.43;100.00
37486;BME280;23341;50.296;18.960;2023-08-06T18:26:41;52999.81;;;-144.43;100.00
37486;BME280;23341;50.296;18.960;2023-08-06T18:31:46;53023.81;;;-144.43;100.00
37486;BME280;23341;50.296;18.960;2023-08-06T18:36:49;53001.81;;;-144.43;100.00
37486;BME280;23341;50.296;18.960;2023-08-06T18:41:55;52973.81;;;-144.43;100.00
37486;BME280;23341;50.296;18.960;2023-08-06T18:46:59;53011.81;;;-144.43;100.00
37486;BME280;23341;50.296;18.960;2023-08-06T18:52:03;53015.81;;;-144.43;100.00
37486;BME280;23341;50.296;18.960;2023-08-06T18:57:10;53025.81;;;-144.43;100.00
37486;BME280;23341;50.296;18.960;2023-08-06T19:02:16;53025.81;;;-144.43;100.00
37486;BME280;23341;50.296;18.960;2023-08-06T19:07:20;52975.81;;;-144.43;100.00
37486;BME280;23341;50.296;18.960;2023-08-06T19:12:25;52969.81;;;-144.43;100.00
37486;BME280;23341;50.296;18.960;2023-08-06T19:17:29;52997.81;;;-144.43;100.00
37486;BME280;23341;50.296;18.960;2023-08-06T19:22:33;52977.81;;;-144.43;100.00
37486;BME280;23341;50.296;18.960;2023-08-06T19:27:38;52983.81;;;-144.43;100.00
37486;BME280;23341;50.296;18.960;2023-08-06T19:32:42;53005.81;;;-144.43;100.00
37486;BME280;23341;50.296;18.960;2023-08-06T19:37:46;53001.81;;;-144.43;100.00
37486;BME280;23341;50.296;18.960;2023-08-06T19:42:51;52955.81;;;-144.43;100.00
37486;BME280;23341;50.296;18.960;2023-08-06T19:47:55;52941.81;;;-144.43;100.00
37486;BME280;23341;50.296;18.960;2023-08-06T19:52:59;52937.81;;;-144.43;100.00
37486;BME280;23341;50.296;18.960;2023-08-06T19:58:04;52969.81;;;-144.43;100.00
37486;BME280;23341;50.296;18.960;2023-08-06T20:03:09;52957.81;;;-144.43;100.00
37486;BME280;23341;50.296;18.960;2023-08-06T20:08:13;52933.81;;;-144.43;100.00
37486;BME280;23341;50.296;18.960;2023-08-06T20:13:18;52945.81;;;-144.43;100.00
37486;BME280;23341;50.296;18.960;2023-08-06T20:18:22;52959.81;;;-144.43;100.00
37486;BME280;23341;50.296;18.960;2023-08-06T20:23:28;52969.81;;;-144.43;100.00
37486;BME280;23341;50.296;18.960;2023-08-06T20:28:33;52987.81;;;-144.43;100.00
37486;BME280;23341;50.296;18.960;2023-08-06T20:33:37;52973.81;;;-144.43;100.00
37486;BME280;23341;50.296;18.960;2023-08-06T20:38:41;52919.78;;;-144.43;100.00
37486;BME280;23341;50.296;18.960;2023-08-06T20:43:47;52917.78;;;-144.43;100.00
37486;BME280;23341;50.296;18.960;2023-08-06T20:48:50;52917.78;;;-144.43;100.00
37486;BME280;23341;50.296;18.960;2023-08-06T20:53:54;52949.81;;;-144.43;100.00
37486;BME280;23341;50.296;18.960;2023-08-06T20:58:59;52933.81;;;-144.43;100.00
37486;BME280;23341;50.296;18.960;2023-08-06T21:04:03;52949.81;;;-144.43;100.00
37486;BME280;23341;50.296;18.960;2023-08-06T21:09:07;52909.78;;;-144.43;100.00
37486;BME280;23341;50.296;18.960;2023-08-06T21:14:12;52917.78;;;-144.43;100.00
37486;BME280;23341;50.296;18.960;2023-08-06T21:19:16;52911.78;;;-144.43;100.00
37486;BME280;23341;50.296;18.960;2023-08-06T21:24:20;52893.78;;;-144.43;100.00
37486;BME280;23341;50.296;18.960;2023-08-06T21:29:25;52875.78;;;-144.43;100.00
37486;BME280;23341;50.296;18.960;2023-08-06T21:34:29;52905.78;;;-144.43;100.00
37486;BME280;23341;50.296;18.960;2023-08-06T21:39:33;52911.78;;;-144.43;100.00
37486;BME280;23341;50.296;18.960;2023-08-06T21:44:38;52915.78;;;-144.43;100.00
37486;BME280;23341;50.296;18.960;2023-08-06T21:49:42;52899.78;;;-144.43;100.00
37486;BME280;23341;50.296;18.960;2023-08-06T21:54:46;52933.81;;;-144.43;100.00
37486;BME280;23341;50.296;18.960;2023-08-06T21:59:51;52915.78;;;-144.43;100.00
37486;BME280;23341;50.296;18.960;2023-08-06T22:04:55;52903.78;;;-144.43;100.00
37486;BME280;23341;50.296;18.960;2023-08-06T22:09:58;52947.81;;;-144.43;100.00
37486;BME280;23341;50.296;18.960;2023-08-06T22:15:05;52909.78;;;-144.43;100.00
37486;BME280;23341;50.296;18.960;2023-08-06T22:20:10;52911.78;;;-144.43;100.00
37486;BME280;23341;50.296;18.960;2023-08-06T22:25:14;52925.78;;;-144.43;100.00
37486;BME280;23341;50.296;18.960;2023-08-06T22:30:19;52901.78;;;-144.43;100.00
37486;BME280;23341;50.296;18.960;2023-08-06T22:35:23;52903.78;;;-144.43;100.00
37486;BME280;23341;50.296;18.960;2023-08-06T22:40:27;52873.78;;;-144.43;100.00
37486;BME280;23341;50.296;18.960;2023-08-06T22:45:32;52945.81;;;-144.43;100.00
37486;BME280;23341;50.296;18.960;2023-08-06T22:50:35;52929.78;;;-144.43;100.00
37486;BME280;23341;50.296;18.960;2023-08-06T22:55:39;52911.78;;;-144.43;100.00
37486;BME280;23341;50.296;18.960;2023-08-06T23:01:04;52969.81;;;-144.43;100.00
37486;BME280;23341;50.296;18.960;2023-08-06T23:06:08;52961.81;;;-144.43;100.00
37486;BME280;23341;50.296;18.960;2023-08-06T23:11:12;52943.81;;;-144.43;100.00
37486;BME280;23341;50.296;18.960;2023-08-06T23:16:17;52941.81;;;-144.43;100.00
37486;BME280;23341;50.296;18.960;2023-08-06T23:21:21;52935.81;;;-144.43;100.00
37486;BME280;23341;50.296;18.960;2023-08-06T23:26:25;52985.81;;;-144.43;100.00
37486;BME280;23341;50.296;18.960;2023-08-06T23:31:30;52991.81;;;-144.43;100.00
37486;BME280;23341;50.296;18.960;2023-08-06T23:36:34;52987.81;;;-144.43;100.00
37486;BME280;23341;50.296;18.960;2023-08-06T23:41:38;52951.81;;;-144.43;100.00
37486;BME280;23341;50.296;18.960;2023-08-06T23:46:43;52977.81;;;-144.43;100.00
37486;BME280;23341;50.296;18.960;2023-08-06T23:51:47;52975.81;;;-144.43;100.00
37486;BME280;23341;50.296;18.960;2023-08-06T23:56:50;52939.81;;;-144.43;100.00
